Aktualne dane pomiarowe

Uwaga, wersja testowa! Automatyczne pobieranie danych za pomocą narzędzi lub skryptów to umożliwiających jest zabronione.

Dane meteo z obszaru Polski uzyskane na podstawie depesz SYNOP pobieranych co godzinę z NWS. Najedź myszką na symbol przedstawiony w tabeli, aby uzyskać informacje co do jego znaczenia. Prosimy pamiętać, że to testowa wersja strony, która jeszcze nie jest ukończona. Stworzono również jest krótki FAQ dotyczący korzystania z tej podstrony Anomalie temperatury w chwili obecnej odniesione są do okresu referencyjnego 1951-2016. Okres ten będzie później zmieniony na 1981-2010. Kliknij ikonę aby pobrać plik CSV. Kliknij ikonę aby wygenerować mapę synoptyczną dla danego terminu.

Wybierz Datę:    

        

Chojnice (12235)

Dane terminowe dla wybranej stacji. Kliknij datę, aby otrzymać dane z tego terminu dla wszystkich stacji.

TemperaturaZachmurzenieWiatrCiśnienieOpadyPogoda
 Data t td wb tx tn tg rh  Nt Nl Cl Cm Ch ws wd g1 g2 wx mslp ppp ch 24h 12h t ww ww w1 w2  
2019-07-07 23:00:00 12.0 11.3 11.5--- 955.0wxwxwx4wx--41009.0 988.4 0.5---wx-w1--
2019-07-07 22:00:00 12.0 11.3 11.5--- 955.0wxwxwx4wx--41008.8 988.2 0.7---wx-w1--
2019-07-07 21:00:00 12.2 11.4 11.6--- 958.0wxwxwx4wx--41008.7 988.1 0.9---wx-w1--
2019-07-07 20:00:00 12.4 11.6 11.8--- 9515.0wxwxwx4wx--41008.5 987.9 0.9---wx-w1--
2019-07-07 19:00:00 12.7 11.5 11.8--- 925.0wxwxwx4wx---1008.0 987.5 0.7---wx-w1w2--
2019-07-07 18:00:00 13.5 11.3 12.0 14.8 12.7- 8722.0wxwxwx4wx-1341007.7 987.2 0.7- 0.412wx---
2019-07-07 17:00:00 13.6 11.2 12.0--- 8518.0wxwxwx5wx10--1007.5 987.0 0.6---wx---
2019-07-07 16:00:00 14.0 10.9 11.9--- 8235.0wxwxwx6wx---1007.2 986.8 0.4---wx---
2019-07-07 15:00:00 14.3 10.8 12.0--- 8030.0wxwxwx7wx121371006.9 986.5 0.6---wx-w1--
2019-07-07 14:00:00 13.9 11.0 12.0--- 8330.0wxwxwx6wx111161006.8 986.4 0.8---wx---
2019-07-07 13:00:00 13.3 11.1 11.8--- 876.0wxwxwx5wx---1006.9 986.4 1.5---wx-w1--
2019-07-07 12:00:00 13.5 10.9 11.7--- 8420.0wxwxwx4wx-1341006.4 985.9 1.4--6wx---
2019-07-07 11:00:00 13.7 9.6 11.1--- 7635.0wxwxwx6wx---1006.0 985.6 1.3---wx---
2019-07-07 10:00:00 14.3 8.6 10.8--- 6930.0wxwxwx6wx-1361005.3 984.9 1.2---------
2019-07-07 09:00:00 14.5 8.8 11.0--- 6925.0wxwxwx5wx101251004.9 984.5 1.0---------
2019-07-07 08:00:00 13.5 8.6 10.5--- 7230.0wxwxwx6wx-1161004.7 984.3 1.0---------
2019-07-07 07:00:00 13.2 8.1 10.1--- 7126.0wxwxwx7wx-1271004.1 983.7 0.1---------
2019-07-07 06:00:00 12.9 8.1 9.9 17.1 10.7 10 7328.0wxwxwx7wx-1271003.9 983.5 -0.2 0.4 0.112----- 0.7
2019-07-07 05:00:00 11.9 7.1 9.0--- 7226.0wxwxwxwx7wx--71003.8 983.3 -0.5---------
2019-07-07 04:00:00 11.1 6.7 8.4--- 7430.0wx-wx5wx101051004.2 983.6 -0.2---------
2019-07-07 03:00:00 10.9 7.3 8.6--- 7827.0wx-wx5wx-951004.3 983.7 -0.3---------
2019-07-07 02:00:00 11.8 7.6 9.2--- 7526.0wx-wx5wx--51004.3 983.8 -0.1---------
2019-07-07 01:00:00 12.7 8.3 10.0--- 7526.0wxwxwxwx4wx9--1004.3 983.8 0.3---------
2019-07-07 00:00:00 13.6 8.7 10.6--- 7227.0wxwxwx4wx-1041004.4 984.0 0.4- 0.16wx-w1--
2019-07-06 23:00:00 14.0 10.7 11.8--- 8129.0wxwxwx5wx101051004.3 983.9 0.0---wx---
2019-07-06 22:00:00 14.1 12.9 13.2--- 9217.0wxwxwx4wx--41003.9 983.5 -0.8---------
2019-07-06 21:00:00 14.9 12.7 13.4--- 8735.0wxwxwx4wx--41003.9 983.6 -0.8---------
2019-07-06 20:00:00 15.9 12.4 13.6--- 8040.0wxwxwx4wx--41004.1 983.9 -0.8---------
2019-07-06 19:00:00 16.6 11.8 13.5--- 7345.0wxwxwx5wx--51004.5 984.3 -0.7---------
2019-07-06 18:00:00 17.0 12.0 13.8 17.7 13.5- 7245.0wxwxwx5wx--51004.6 984.4 -1.3- 0.312wx-w1--
2019-07-06 17:00:00 17.4 12.6 14.3--- 7329.0wxwxwx4wx--41004.9 984.7 -1.6---wx---
2019-07-06 16:00:00 17.5 12.1 14.0--- 7129.0wxwxwx6wx--61005.2 985.0 -1.4---------
2019-07-06 15:00:00 16.9 12.1 13.8--- 7330.0wxwxwx4wx--41005.9 985.7 -1.1---wx-w1--
2019-07-06 14:00:00 16.9 12.1 13.8--- 7316.0wxwxwx6wx--61006.5 986.3 -0.9---wx---
2019-07-06 13:00:00 17.5 11.8 13.9--- 6930.0wxwxwx7wx--71006.6 986.4 -1.2---wx---
2019-07-06 12:00:00 16.9 11.9 13.7--- 7230.0wxwxwx6wx-1061007.0 986.8 -1.2- 0.36wx-w1--
2019-07-06 11:00:00 16.9 12.1 13.8--- 7330.0wxwxwx6wx-1061007.4 987.2 -1.1---------
2019-07-06 10:00:00 15.2 12.4 13.3--- 8340.0wxwxwx5wx--51008.0 987.6 -0.9---------
2019-07-06 09:00:00 14.3 13.1 13.4--- 939.0wxwxwx2wx--21008.4 988.0 -0.8---wx---
2019-07-06 08:00:00 13.5 12.7 12.9--- 952.5wxwxwx4wx--41008.8 988.3 -0.9---wx---
2019-07-06 07:00:00 15.1 11.0 12.4--- 7730.0wxwxwx4wx--41008.9 988.5 -0.7---------
2019-07-06 06:00:00 14.1 11.7 12.5 16.8 8.2 8 8535.0wxwxwxwx4wx--41009.3 988.8 -0.7 1.9 0.012----- 9.8
2019-07-06 05:00:00 13.6 11.7 12.3--- 8820.0wxwxwx4wx--41009.7 989.2 -0.7---------
2019-07-06 04:00:00 12.9 11.7 12.0--- 9215.0wxwxwx3wx--31009.8 989.2 -1.1---------
2019-07-06 03:00:00 12.3 11.6 11.8--- 9510.0wxwxwx4wx--41010.1 989.5 -1.0---------
2019-07-06 02:00:00 11.5 11.3 11.3--- 9910.0wxwxwx3wx--31010.6 989.9 -0.6---------
2019-07-06 01:00:00 9.1 8.3 8.5--- 9530.0wx-wx3wx--31011.2 990.3 -0.4---------
2019-07-06 00:00:00 8.7 6.1 7.0--- 8450.0wx-3wx--31011.4 990.5 -0.3- 0.06------
1.3 ms

 

Print Friendly, PDF & Email